Terminal Aerodrome Forecast
Issued by NWS

Home | Current Version | Previous Version | Text Only | Print | Product List | Glossary On
Versions: 1 2 3 4 5 6 7 8 9 10 11 12 13 14 15 16 17 18 19 20 21 22 23 24 25 26
120
FTUS42 KFFC 261120
TAFFTY
TAF
KFTY 261120Z 2612/2712 VRB03KT P6SM SCT007 BKN015
     FM261500 VRB03KT P6SM VCSH SCT015 BKN025
     FM261800 20005KT P6SM VCSH SCT025 BKN040
      TEMPO 2618/2622 VRB15G25KT 3SM TSRA BKN025CB
     FM270300 VRB03KT P6SM SCT040 BKN200
     FM271000 VRB03KT 5SM BR SCT005 OVC250=

USA.gov is the U.S. government's official web portal to all federal, state and local government web resources and services.